Tiempo atmosférico en la estación meteorológica de Vigo, Pontevedra (120 m.)



Fecha
DESCASC
Temp. máxima en grados centígrados (hora)
DESCASC
Temp. mínima en grados centígrados (hora)
DESCASC
Temp. media en grados centígrados
DESCASC
Racha de viento máxima en m/sg (hora)
DESCASC
Velocidad máxima media en intervalos de 10 minutos(hora)
DESCASC
Precipitaciones diarias en mm
DESCASC
Precipitaciones de 00:00 a 06:00 en mm
DESCASC
Precipitaciones de 06:00 a 12:00 en mm
DESCASC
Precipitaciones de 12:00 a 18:00 en mm
DESCASC
Precipitaciones de 18:00 a 24:00 en mm
DESCASC
07-08-2020 26.6 (15:00) 16.7 (07:10) 21.7 5 (16:10) 2.22 (16:20) 0 0 0 0 0
06-08-2020 26.9 (15:00) 16.7 (07:40) 21.8 4.17 (15:00) 2.22 (13:30) 0 0 0 0 0
05-08-2020 26.5 (15:50) 15.9 (07:50) 21.2 5.56 (16:00) 2.22 (11:50) 0 0 0 0 0
04-08-2020 28.1 (16:40) 16.2 (08:10) 22.2 7.5 (01:10) 3.33 (01:10) 0 0 0 0 0
03-08-2020 23.1 (17:20) 15.1 (06:40) 19.1 6.39 (16:10) 2.78 (00:20) 0 0 0 0 0
02-08-2020 25.7 (14:50) 15.8 (07:40) 20.8 6.94 (01:10) 2.5 (13:50) 0 0 0 0 0
01-08-2020 25.8 (19:30) 17.1 (00:00) 21.4 8.89 (21:00) 3.61 (21:00) 0 0 0 0 0
31-07-2020 23.7 (17:20) 16.8 (05:10) 20.3 6.11 (14:50) 2.5 (14:50) 0 0 0 0 0
30-07-2020 23.7 (10:40) 17.2 (00:00) 20.5 5.83 (15:50) 2.78 (12:40) 0 0 0 0 0
29-07-2020 31.5 (17:10) 17.7 (00:00) 24.6 5 (04:40) 2.5 (15:10) 0 0 0 0 0
28-07-2020 30 (18:30) 18.7 (03:30) 24.4 7.78 (22:00) 3.33 (20:30) 0 0 0 0 0
27-07-2020 25.7 (16:20) 15.6 (00:00) 20.7 6.67 (16:30) 2.22 (13:30) 0 0 0 0 0
26-07-2020 25.9 (17:30) 17.4 (00:00) 21.6 6.94 (18:30) 2.5 (16:30) 0 0 0 0 0
25-07-2020 24.7 (16:10) 15.7 (07:40) 20.2 5.28 (17:20) 2.22 (13:50) 0 0 0 0 0
24-07-2020 26.6 (14:00) 15.5 (00:00) 21.1 6.67 (17:40) 2.5 (17:30) 0 0 0 0 0
23-07-2020 27.8 (15:30) 17.4 (00:00) 22.6 4.72 (13:30) 2.78 (13:20) 0 0 0 0 0
22-07-2020 29.7 (15:30) 19.8 (07:50) 24.8 4.72 (17:40) 2.5 (13:00) 0 0 0 0 0
21-07-2020 33.4 (17:30) 19 (00:00) 26.2 5.56 (00:30) 2.78 (15:00) 0 0 0 0 0
20-07-2020 31.1 (19:50) 16.2 (05:30) 23.7 6.11 (22:30) 2.5 (22:30) 0 0 0 0 0
19-07-2020 21.7 (00:00) 15.2 (00:00) 18.5 6.39 (16:40) 2.5 (16:50) 0 0 0 0 0
18-07-2020 31.2 (18:00) 21.7 (00:00) 26.5 4.72 (15:50) 2.5 (13:10) 0 0 0 0 0
17-07-2020 35.1 (15:50) 21.5 (00:00) 28.3 5.56 (09:00) 2.78 (07:40) 0 0 0 0 0
16-07-2020 35 (19:20) 19 (00:00) 27 7.78 (20:20) 3.61 (18:30) 0 0 0 0 0
15-07-2020 32.9 (16:40) 18.6 (01:20) 25.8 9.17 (17:50) 3.61 (17:00) 0 0 0 0 0
14-07-2020 26.9 (16:40) 18.4 (00:00) 22.6 11.39 (16:30) 6.11 (14:20) 0 0 0 0 0
13-07-2020 32.2 (18:10) 20.2 (07:20) 26.2 10.83 (20:10) 5 (16:50) 0 0 0 0 0

Gráficas

Temp. máximas Temp. mínimas Temp. medias Precipitaciones Rachas de viento máximas Velocidades máximas media en intervalos de 10 minutos

Datos horarios

Fecha y hora oficial Temperatura (ºC) Velocidad del viento (km/h) Dirección del viento Racha (km/h) Dirección de racha Precipitación (mm) Presión (hPa) Tendencia (hPa) Humedad (%)
2020-08-11 23:00:00 19.2 0 Calma 5 Norte 0 -- -- 89
2020-08-11 22:00:00 19.4 2 Oeste 5 Nordeste 0 -- -- 88
2020-08-11 21:00:00 19.4 0 Calma 4 Oeste 0 -- -- 87
2020-08-11 20:00:00 19.5 3 Oeste 12 Oeste 0 -- -- 86
2020-08-11 19:00:00 20.5 6 Oeste 13 Oeste 0 -- -- 82
2020-08-11 18:00:00 21.6 6 Oeste 16 Oeste 0 -- -- 78
2020-08-11 17:00:00 21.8 6 Oeste 20 Oeste 0 -- -- 77
2020-08-11 16:00:00 22.4 9 Oeste 21 Oeste 0 -- -- 74
2020-08-11 15:00:00 21.1 8 Oeste 19 Oeste 0 -- -- 79
2020-08-11 14:00:00 21 9 Oeste 19 Oeste 0 -- -- 80
2020-08-11 13:00:00 20.1 8 Oeste 17 Sudoeste 0 -- -- 82
2020-08-11 12:00:00 19.4 5 Oeste 14 Oeste 0 -- -- 87
2020-08-11 11:00:00 18.3 5 Oeste 11 Oeste 0 -- -- 91
2020-08-11 10:00:00 17.7 3 Oeste 8 Oeste 0 -- -- 93
2020-08-11 09:00:00 17.6 4 Oeste 8 Oeste 0 -- -- 93
2020-08-11 08:00:00 17.9 4 Oeste 6 Oeste 0 -- -- 92
2020-08-11 07:00:00 18.4 0 Calma 6 Oeste 0 -- -- 89
2020-08-11 06:00:00 19 0 Calma 9 Nordeste 0 -- -- 86
2020-08-11 05:00:00 19.4 3 Nordeste 10 Norte 0 -- -- 82
2020-08-11 04:00:00 19.7 4 Nordeste 10 Nordeste 0 -- -- 80
2020-08-11 03:00:00 20.2 3 Nordeste 12 Este 0 -- -- 78
2020-08-11 02:00:00 20.5 5 Nordeste 17 Este 0 -- -- 77
2020-08-11 01:00:00 20.8 5 Este 15 Este 0 -- -- 77
2020-08-11 00:00:00 21.3 6 Nordeste 23 Nordeste 0 -- -- 76
2020-08-10 23:00:00 21.9 6 Nordeste 26 Nordeste 0 -- -- 75
2020-08-10 22:00:00 22.7 8 Nordeste 17 Norte 0 -- -- 73
2020-08-10 21:00:00 23.5 10 Norte 26 Norte 0 -- -- 71
2020-08-10 20:00:00 25.3 12 Norte 27 Norte 0 -- -- 64
2020-08-10 19:00:00 26.3 14 Norte 25 Norte 0 -- -- 62
2020-08-10 18:00:00 26.8 6 Noroeste 13 Sudoeste 0 -- -- 62
2020-08-10 17:00:00 26.5 4 Sudeste 16 Noroeste 0 -- -- 61
2020-08-10 16:00:00 27.3 5 Oeste 18 Oeste 0 -- -- 57
2020-08-10 15:00:00 26.4 6 Oeste 14 Noroeste 0 -- -- 60
2020-08-10 14:00:00 24.9 5 Oeste 12 Noroeste 0 -- -- 64
2020-08-10 13:00:00 23.1 5 Oeste 11 Oeste 0 -- -- 70
2020-08-10 12:00:00 21.8 6 Oeste 12 Oeste 0 -- -- 74
2020-08-10 11:00:00 21 2 Nordeste 8 Nordeste 0 -- -- 79
2020-08-10 10:00:00 17.4 0 Calma 5 Sudeste 0 -- -- 100
2020-08-10 09:00:00 16 2 Sur 5 Noroeste 0 -- -- 100
2020-08-10 08:00:00 15.9 2 Noroeste 5 Noroeste 0 -- -- 100
2020-08-10 07:00:00 15.3 0 Calma 4 Sur 0 -- -- 100
2020-08-10 06:00:00 15.7 0 Calma 4 Oeste 0 -- -- 100
2020-08-10 05:00:00 15.9 0 Calma 4 Sudeste 0 -- -- 100
2020-08-10 04:00:00 15.7 2 Sudeste 4 Sudeste 0 -- -- 100
2020-08-10 03:00:00 15.8 0 Calma 3 Oeste 0 -- -- 100
2020-08-10 02:00:00 16.1 0 Calma 4 Oeste 0 -- -- 99
2020-08-10 01:00:00 16.3 0 Calma 4 Noroeste 0 -- -- 99
2020-08-10 00:00:00 16.5 2 Sudoeste 5 Noroeste 0 -- -- 98
2020-08-09 23:00:00 16.9 3 Oeste 4 Oeste 0 -- -- 96
2020-08-09 22:00:00 17 0 Calma 9 Oeste 0 -- -- 93
2020-08-09 21:00:00 19.2 2 Oeste 5 Sudoeste 0 -- -- 86
2020-08-09 20:00:00 20.2 3 Sudoeste 12 Oeste 0 -- -- 82
2020-08-09 19:00:00 19.4 7 Oeste 17 Oeste 0 -- -- 85
2020-08-09 18:00:00 20.2 5 Oeste 16 Oeste 0 -- -- 82
2020-08-09 17:00:00 19.1 5 Sudoeste 18 Oeste 0 -- -- 87
2020-08-09 16:00:00 19.5 6 Sudoeste 18 Sudoeste 0 -- -- 85
2020-08-09 15:00:00 19.3 4 Sudoeste 14 Oeste 0 -- -- 86
2020-08-09 14:00:00 18.6 4 Oeste 12 Oeste 0 -- -- 89
2020-08-09 13:00:00 17.9 3 Sudoeste 11 Noroeste 0 -- -- 97
2020-08-09 12:00:00 16.6 3 Oeste 8 Oeste 0 -- -- 100
2020-08-09 11:00:00 16.1 3 Oeste 11 Oeste 0 -- -- 100
2020-08-09 10:00:00 16.1 3 Oeste 10 Oeste 0 -- -- 100
2020-08-09 09:00:00 15.9 4 Oeste 6 Noroeste 0 -- -- 100
2020-08-09 08:00:00 15.3 0 Calma 5 Oeste 0 -- -- 100
2020-08-09 07:00:00 15.2 2 Oeste 8 Noroeste 0 -- -- 100
2020-08-09 06:00:00 15.6 3 Noroeste 12 Oeste 0 -- -- 100
2020-08-09 05:00:00 15.8 2 Sudoeste 8 Oeste 0 -- -- 99
2020-08-09 04:00:00 16.2 4 Oeste 7 Noroeste 0 -- -- 98
2020-08-09 03:00:00 16.6 3 Oeste 9 Noroeste 0 -- -- 97
2020-08-09 02:00:00 17.4 5 Oeste 9 Oeste 0 -- -- 94
2020-08-09 01:00:00 18.3 0 Calma 3 Oeste 0 -- -- 91
2020-08-09 00:00:00 18.9 0 Calma 4 Nordeste 0 -- -- 87
2020-08-08 23:00:00 19 2 Nordeste 4 Nordeste 0 -- -- 87
2020-08-08 22:00:00 19.5 0 Calma 5 Norte 0 -- -- 82
2020-08-08 21:00:00 21.4 3 Norte 6 Oeste 0 -- -- 77
2020-08-08 20:00:00 23.1 3 Oeste 10 Oeste 0 -- -- 68
2020-08-08 19:00:00 23.1 4 Oeste 13 Oeste 0 -- -- 68
2020-08-08 18:00:00 23.7 6 Oeste 13 Oeste 0 -- -- 67
2020-08-08 17:00:00 22 8 Oeste 16 Sudoeste 0 -- -- 73
2020-08-08 16:00:00 21.8 9 Oeste 15 Oeste 0 -- -- 75
2020-08-08 15:00:00 21.3 8 Oeste 17 Oeste 0 -- -- 76
2020-08-08 14:00:00 21 8 Oeste 20 Oeste 0 -- -- 78
2020-08-08 13:00:00 20.3 9 Oeste 17 Oeste 0 -- -- 80
2020-08-08 12:00:00 20.9 5 Oeste 13 Oeste 0 -- -- 78
2020-08-08 11:00:00 19.2 8 Oeste 14 Oeste 0 -- -- 85
2020-08-08 10:00:00 19.3 2 Sur 13 Oeste 0 -- -- 86
2020-08-08 09:00:00 17.9 4 Oeste 14 Norte 0 -- -- 92
2020-08-08 08:00:00 17.5 2 Norte 5 Norte 0 -- -- 90
2020-08-08 07:00:00 17.8 3 Nordeste 8 Nordeste 0 -- -- 88
2020-08-08 06:00:00 17.9 0 Calma 7 Nordeste 0 -- -- 89
2020-08-08 05:00:00 18.3 2 Este 7 Nordeste 0 -- -- 88
2020-08-08 04:00:00 19 2 Norte 8 Norte 0 -- -- 86
2020-08-08 03:00:00 19.8 3 Nordeste 12 Nordeste 0 -- -- 83
2020-08-08 02:00:00 19.6 3 Nordeste 6 Nordeste 0 -- -- 86
2020-08-08 01:00:00 20.2 2 Nordeste 10 Este 0 -- -- 84
2020-08-08 00:00:00 19.9 0 Calma 6 Nordeste 0 -- -- 85
2020-08-07 23:00:00 19.8 0 Calma 4 Norte 0 -- -- 86
2020-08-07 22:00:00 20.2 3 Nordeste 8 Oeste 0 -- -- 84
2020-08-07 21:00:00 22.4 3 Oeste 8 Sudoeste 0 -- -- 75
2020-08-07 20:00:00 24.4 3 Sudoeste 10 Oeste 0 -- -- 68
2020-08-07 19:00:00 25 4 Sudoeste 12 Oeste 0 -- -- 67
2020-08-07 18:00:00 26 4 Sudoeste 14 Sudoeste 0 -- -- 63
2020-08-07 17:00:00 25.9 6 Sudoeste 18 Oeste 0 -- -- 65
2020-08-07 16:00:00 26.5 7 Sudoeste 14 Oeste 0 -- -- 62
2020-08-07 15:00:00 26.6 4 Sudoeste 15 Oeste 0 -- -- 62
2020-08-07 14:00:00 25.4 6 Sudoeste 16 Oeste 0 -- -- 66
2020-08-07 13:00:00 24.4 5 Oeste 13 Oeste 0 -- -- 71
2020-08-07 12:00:00 22.6 5 Oeste 12 Sudoeste 0 -- -- 79
2020-08-07 11:00:00 20 5 Oeste 10 Oeste 0 -- -- 89
2020-08-07 10:00:00 19 2 Sudoeste 5 Sudeste 0 -- -- 96
2020-08-07 09:00:00 17.4 0 Calma 3 Sudeste 0 -- -- 100
2020-08-07 08:00:00 16.9 2 Norte 5 Noroeste 0 -- -- 100
2020-08-07 07:00:00 16.8 0 Calma 6 Oeste 0 -- -- 100
2020-08-07 06:00:00 17.2 2 Oeste 7 Noroeste 0 -- -- 99
2020-08-07 05:00:00 17 0 Calma 2 Sudeste 0 -- -- 99
2020-08-07 04:00:00 17.3 0 Calma 3 Noroeste 0 -- -- 98
2020-08-07 03:00:00 17.4 0 Calma 2 Sudeste 0 -- -- 98
2020-08-07 02:00:00 17.6 0 Calma 2 Sur 0 -- -- 97
2020-08-07 01:00:00 17.7 0 Calma 4 Norte 0 -- -- 96
2020-08-07 00:00:00 17.8 0 Calma 6 Noroeste 0 -- -- 96
2020-08-06 23:00:00 18 3 Noroeste 8 Noroeste 0 -- -- 95
2020-08-06 22:00:00 18.8 3 Oeste 9 Oeste 0 -- -- 90
2020-08-06 21:00:00 20.7 3 Sudoeste 10 Sur 0 -- -- 82
2020-08-06 20:00:00 23.5 4 Sudoeste 15 Sudoeste 0 -- -- 71
2020-08-06 19:00:00 24.7 5 Sudoeste 13 Sudoeste 0 -- -- 66
2020-08-06 18:00:00 25.9 4 Sudoeste 15 Oeste 0 -- -- 61
2020-08-06 17:00:00 26.4 5 Oeste 15 Oeste 0 -- -- 59
2020-08-06 16:00:00 25.7 6 Oeste 14 Sur 0 -- -- 61
2020-08-06 15:00:00 26.9 5 Oeste 15 Sudoeste 0 -- -- 58
2020-08-06 14:00:00 25.8 5 Oeste 13 Noroeste 0 -- -- 63
2020-08-06 13:00:00 24.7 5 Oeste 11 Oeste 0 -- -- 67
2020-08-06 12:00:00 24.1 3 Oeste 9 Nordeste 0 -- -- 70
2020-08-06 11:00:00 22.7 3 Nordeste 6 Norte 0 -- -- 73
2020-08-06 10:00:00 20.9 4 Norte 10 Norte 0 -- -- 79
2020-08-06 09:00:00 19.2 0 Calma 6 Noroeste 0 -- -- 88
2020-08-06 08:00:00 17 0 Calma 4 Nordeste 0 -- -- 96
2020-08-06 07:00:00 17 2 Norte 5 Nordeste 0 -- -- 96
2020-08-06 06:00:00 17 0 Calma 3 Nordeste 0 -- -- 95
2020-08-06 05:00:00 17.3 0 Calma 2 Nordeste 0 -- -- 93
2020-08-06 04:00:00 17.6 0 Calma 2 Sur 0 -- -- 92
2020-08-06 03:00:00 17.8 0 Calma 3 Sudoeste 0 -- -- 89
2020-08-06 02:00:00 17.9 0 Calma 4 Nordeste 0 -- -- 88
2020-08-06 01:00:00 18.2 2 Sudoeste 4 Sudoeste 0 -- -- 87
2020-08-06 00:00:00 18.4 0 Calma 2 Sur 0 -- -- 87
2020-08-05 23:00:00 18.5 0 Calma 4 Sudoeste 0 -- -- 83
2020-08-05 22:00:00 19.3 3 Oeste 8 Oeste 0 -- -- 80
2020-08-05 21:00:00 21.3 2 Sudoeste 9 Oeste 0 -- -- 71
2020-08-05 20:00:00 24 3 Sudoeste 14 Oeste 0 -- -- 63
2020-08-05 19:00:00 25.2 4 Sudoeste 16 Oeste 0 -- -- 60
2020-08-05 18:00:00 24.8 5 Sudoeste 19 Sur 0 -- -- 62
2020-08-05 17:00:00 25.3 5 Sur 18 Sudoeste 0 -- -- 60
2020-08-05 16:00:00 26.2 6 Sudoeste 20 Sudoeste 0 -- -- 58
2020-08-05 15:00:00 26.4 5 Sudoeste 15 Sudoeste 0 -- -- 57
2020-08-05 14:00:00 25.4 6 Oeste 17 Sudoeste 0 -- -- 61
2020-08-05 13:00:00 25.2 4 Sudoeste 13 Oeste 0 -- -- 62
2020-08-05 12:00:00 22.4 5 Oeste 14 Noroeste 0 -- -- 74
2020-08-05 11:00:00 22 4 Nordeste 9 Nordeste 0 -- -- 74
2020-08-05 10:00:00 19.4 3 Nordeste 8 Norte 0 -- -- 87
2020-08-05 09:00:00 17.6 4 Nordeste 8 Nordeste 0 -- -- 95
2020-08-05 08:00:00 15.9 0 Calma 3 Sudoeste 0 -- -- 98
2020-08-05 07:00:00 16.3 0 Calma 5 Oeste 0 -- -- 97
2020-08-05 06:00:00 17 0 Calma 3 Oeste 0 -- -- 97
2020-08-05 05:00:00 17.3 0 Calma 3 Norte 0 -- -- 95
2020-08-05 04:00:00 17.6 0 Calma 3 Norte 0 -- -- 94
2020-08-05 03:00:00 18 0 Calma 3 Sudoeste 0 -- -- 91
2020-08-05 02:00:00 18.2 0 Calma 3 Sudoeste 0 -- -- 89
2020-08-05 01:00:00 18.5 0 Calma 4 Norte 0 -- -- 88
2020-08-05 00:00:00 18.9 0 Calma 3 Norte 0 -- -- 87
2020-08-04 23:00:00 19.5 0 Calma 3 Oeste 0 -- -- 83
2020-08-04 22:00:00 20.3 0 Calma 10 Oeste 0 -- -- 79
2020-08-04 21:00:00 21.8 3 Sudoeste 9 Sur 0 -- -- 73
2020-08-04 20:00:00 24.3 4 Sur 15 Sudoeste 0 -- -- 64
2020-08-04 19:00:00 26 5 Sudoeste 14 Oeste 0 -- -- 60
2020-08-04 18:00:00 26.2 6 Sudoeste 18 Sudoeste 0 -- -- 60
2020-08-04 17:00:00 27.7 5 Sudoeste 18 Oeste 0 -- -- 55
2020-08-04 16:00:00 27.5 5 Sudoeste 19 Oeste 0 -- -- 54
2020-08-04 15:00:00 27.3 6 Sudoeste 19 Oeste 0 -- -- 55
2020-08-04 14:00:00 26.2 6 Oeste 14 Oeste 0 -- -- 57
2020-08-04 13:00:00 24.8 6 Noroeste 13 Nordeste 0 -- -- 57
2020-08-04 12:00:00 24.2 4 Nordeste 11 Nordeste 0 -- -- 58
2020-08-04 11:00:00 21.7 4 Norte 12 Norte 0 -- -- 67
2020-08-04 10:00:00 20.9 3 Nordeste 13 Norte 0 -- -- 69
2020-08-04 09:00:00 18.6 4 Nordeste 11 Nordeste 0 -- -- 80
2020-08-04 08:00:00 16.3 3 Sur 8 Norte 0 -- -- 88
2020-08-04 07:00:00 17 0 Calma 15 Nordeste 0 -- -- 86
2020-08-04 06:00:00 17.1 0 Calma 10 Nordeste 0 -- -- 87
2020-08-04 05:00:00 17.9 4 Nordeste 19 Nordeste 0 -- -- 85
2020-08-04 04:00:00 18.4 6 Nordeste 17 Norte 0 -- -- 83
2020-08-04 03:00:00 18.4 5 Nordeste 18 Norte 0 -- -- 83
2020-08-04 02:00:00 18.8 6 Norte 27 Norte 0 -- -- 81
2020-08-04 01:00:00 18.3 6 Norte 16 Norte 0 -- -- 85
2020-08-04 00:00:00 17.5 2 Sur 9 Sudoeste 0 -- -- 93
2020-08-03 23:00:00 18 3 Sudoeste 9 Oeste 0 -- -- 92
2020-08-03 22:00:00 19.4 3 Sudoeste 10 Oeste 0 -- -- 86
2020-08-03 21:00:00 20.8 4 Sudoeste 12 Sudoeste 0 -- -- 80
2020-08-03 20:00:00 21.9 6 Sudoeste 19 Oeste 0 -- -- 76
2020-08-03 19:00:00 22.7 5 Sudoeste 20 Oeste 0 -- -- 73
2020-08-03 18:00:00 22.7 8 Sudoeste 19 Oeste 0 -- -- 74
2020-08-03 17:00:00 22.6 6 Sudoeste 23 Oeste 0 -- -- 73
2020-08-03 16:00:00 22.8 8 Sudoeste 20 Oeste 0 -- -- 72
2020-08-03 15:00:00 22.2 9 Sudoeste 20 Sudoeste 0 -- -- 70
2020-08-03 14:00:00 22.4 7 Oeste 21 Sudoeste 0 -- -- 68
2020-08-03 13:00:00 22.2 4 Sudoeste 13 Oeste 0 -- -- 68
2020-08-03 12:00:00 20.1 4 Noroeste 11 Oeste 0 -- -- 74
2020-08-03 11:00:00 19.2 3 Oeste 8 Norte 0 -- -- 77
2020-08-03 10:00:00 19.1 2 Nordeste 7 Norte 0 -- -- 76
2020-08-03 09:00:00 17.3 0 Calma 5 Este 0 -- -- 85
2020-08-03 08:00:00 16.1 3 Norte 5 Norte 0 -- -- 91
2020-08-03 07:00:00 15.1 0 Calma 4 Sudeste 0 -- -- 92
2020-08-03 06:00:00 15.3 0 Calma 5 Sur 0 -- -- 91
2020-08-03 05:00:00 15.7 3 Sur 6 Noroeste 0 -- -- 91
2020-08-03 04:00:00 16.4 0 Calma 10 Nordeste 0 -- -- 87
2020-08-03 03:00:00 17 3 Oeste 7 Oeste 0 -- -- 84
2020-08-03 02:00:00 17.9 0 Calma 12 Norte 0 -- -- 79
2020-08-03 01:00:00 18.5 5 Nordeste 22 Nordeste 0 -- -- 76
2020-08-03 00:00:00 18.8 5 Norte 13 Norte 0 -- -- 77
2020-08-02 23:00:00 19.9 2 Norte 14 Norte 0 -- -- 74
2020-08-02 22:00:00 20.2 5 Norte 14 Nordeste 0 -- -- 74
2020-08-02 21:00:00 20.2 5 Oeste 15 Oeste 0 -- -- 74
2020-08-02 20:00:00 21.3 3 Oeste 15 Sudoeste 0 -- -- 69
2020-08-02 19:00:00 23.5 6 Noroeste 17 Norte 0 -- -- 63
2020-08-02 18:00:00 24.7 4 Norte 17 Oeste 0 -- -- 59
2020-08-02 17:00:00 24.4 8 Sudoeste 21 Oeste 0 -- -- 61
2020-08-02 16:00:00 25.2 5 Sudoeste 15 Norte 0 -- -- 58
2020-08-02 15:00:00 25.4 6 Noroeste 19 Norte 0 -- -- 57
2020-08-02 14:00:00 24.5 7 Norte 20 Norte 0 -- -- 58
2020-08-02 13:00:00 23.3 5 Norte 14 Norte 0 -- -- 61
2020-08-02 12:00:00 22.6 6 Norte 17 Norte 0 -- -- 62
2020-08-02 11:00:00 22 6 Nordeste 14 Nordeste 0 -- -- 62
2020-08-02 10:00:00 20.1 2 Nordeste 14 Nordeste 0 -- -- 69
2020-08-02 09:00:00 17.8 5 Nordeste 15 Nordeste 0 -- -- 77
2020-08-02 08:00:00 16 3 Norte 10 Nordeste 0 -- -- 83
2020-08-02 07:00:00 16.3 3 Nordeste 12 Nordeste 0 -- -- 82
2020-08-02 06:00:00 16.8 3 Este 13 Este 0 -- -- 81
2020-08-02 05:00:00 17 4 Nordeste 17 Nordeste 0 -- -- 81
2020-08-02 04:00:00 17.4 6 Nordeste 16 Norte 0 -- -- 80
2020-08-02 03:00:00 18 3 Nordeste 13 Nordeste 0 -- -- 78
2020-08-02 02:00:00 18.7 4 Nordeste 25 Norte 0 -- -- 76
2020-08-02 01:00:00 19.3 7 Nordeste 23 Nordeste 0 -- -- 74
2020-08-02 00:00:00 19.8 7 Nordeste 27 Norte 0 -- -- 74
2020-08-01 23:00:00 20.7 11 Nordeste 31 Nordeste 0 -- -- 70
2020-08-01 22:00:00 22.1 12 Norte 28 Norte 0 -- -- 66
2020-08-01 21:00:00 23.7 13 Norte 32 Nordeste 0 -- -- 62
2020-08-01 20:00:00 25.6 4 Oeste 13 Sudoeste 0 -- -- 58
2020-08-01 19:00:00 25.7 5 Sudoeste 15 Oeste 0 -- -- 58
2020-08-01 18:00:00 25.4 6 Sudoeste 18 Sudoeste 0 -- -- 60
2020-08-01 17:00:00 25.3 6 Norte 15 Noroeste 0 -- -- 60
2020-08-01 16:00:00 24.7 7 Sudoeste 25 Sudoeste 0 -- -- 62
2020-08-01 15:00:00 24 9 Sudoeste 20 Oeste 0 -- -- 64
2020-08-01 14:00:00 24.3 6 Sudoeste 18 Sudoeste 0 -- -- 64
2020-08-01 13:00:00 23.4 6 Sudoeste 17 Oeste 0 -- -- 67
2020-08-01 12:00:00 22.1 6 Oeste 16 Oeste 0 -- -- 75
2020-08-01 11:00:00 20.2 2 Oeste 8 Noroeste 0 -- -- 83
2020-08-01 10:00:00 18.5 0 Calma 5 Oeste 0 -- -- 93
2020-08-01 09:00:00 17.6 0 Calma 7 Oeste 0 -- -- 100
2020-08-01 08:00:00 17.2 0 Calma 4 Oeste 0 -- -- 100
2020-08-01 07:00:00 17.3 3 Oeste 7 Oeste 0 -- -- 99
2020-08-01 06:00:00 17.4 0 Calma 6 Oeste 0 -- -- 98
2020-08-01 05:00:00 17.8 3 Noroeste 5 Noroeste 0 -- -- 99
2020-08-01 04:00:00 17.6 2 Oeste 8 Oeste 0 -- -- 98
2020-08-01 03:00:00 17.8 0 Calma 5 Oeste 0 -- -- 97
2020-08-01 02:00:00 17.8 0 Calma 6 Oeste 0 -- -- 97
2020-08-01 01:00:00 17.9 0 Calma 7 Oeste 0 -- -- 97
2020-08-01 00:00:00 18 3 Sudoeste 10 Oeste 0 -- -- 96
2020-07-31 23:00:00 18.3 2 Sudoeste 9 Oeste 0 -- -- 95
2020-07-31 22:00:00 18.8 2 Oeste 11 Oeste 0 -- -- 93
2020-07-31 21:00:00 19.5 4 Oeste 13 Oeste 0 -- -- 88
2020-07-31 20:00:00 20.4 5 Sudoeste 18 Oeste 0 -- -- 81
2020-07-31 19:00:00 22 8 Sudoeste 19 Oeste 0 -- -- 70
2020-07-31 18:00:00 23.6 5 Oeste 17 Oeste 0 -- -- 60
2020-07-31 17:00:00 22.9 6 Oeste 19 Sudoeste 0 -- -- 63
2020-07-31 16:00:00 22.3 8 Oeste 21 Oeste 0 -- -- 68
2020-07-31 15:00:00 21.5 9 Oeste 22 Noroeste 0 -- -- 71
2020-07-31 14:00:00 22 7 Oeste 17 Oeste 0 -- -- 69
2020-07-31 13:00:00 21.5 6 Oeste 14 Noroeste 0 -- -- 71
2020-07-31 12:00:00 20.9 4 Norte 10 Noroeste 0 -- -- 72
2020-07-31 11:00:00 19.1 4 Noroeste 10 Noroeste 0 -- -- 79
2020-07-31 10:00:00 17.6 2 Noroeste 8 Oeste 0 -- -- 85
2020-07-31 09:00:00 17 4 Oeste 11 Oeste 0 -- -- 90
2020-07-31 08:00:00 16.8 3 Oeste 10 Oeste 0 -- -- 91
2020-07-31 07:00:00 16.9 2 Oeste 8 Noroeste 0 -- -- 94
2020-07-31 06:00:00 16.8 2 Noroeste 6 Norte 0 -- -- 95
2020-07-31 05:00:00 17 0 Calma 6 Noroeste 0 -- -- 96
2020-07-31 04:00:00 17.2 0 Calma 8 Oeste 0 -- -- 96
2020-07-31 03:00:00 17.3 2 Oeste 10 Oeste 0 -- -- 96
2020-07-31 02:00:00 17.3 2 Sudoeste 10 Oeste 0 -- -- 96
2020-07-31 01:00:00 17.4 2 Sudoeste 9 Sudoeste 0 -- -- 95
2020-07-31 00:00:00 17.4 0 Calma 8 Sudoeste 0 -- -- 96
2020-07-30 23:00:00 17.2 0 Calma 6 Noroeste 0 -- -- 97
2020-07-30 22:00:00 17.3 3 Norte 8 Oeste 0 -- -- 97
2020-07-30 21:00:00 17.4 4 Oeste 14 Sudoeste 0 -- -- 96
2020-07-30 20:00:00 18 5 Oeste 17 Oeste 0 -- -- 94
2020-07-30 19:00:00 18.7 6 Sudoeste 19 Oeste 0 -- -- 90
2020-07-30 18:00:00 19.2 7 Oeste 21 Norte 0 -- -- 88
2020-07-30 17:00:00 19.4 7 Oeste 19 Sudoeste 0 -- -- 86
2020-07-30 16:00:00 20.1 8 Norte 21 Norte 0 -- -- 82
2020-07-30 15:00:00 20.5 7 Norte 19 Noroeste 0 -- -- 80
2020-07-30 14:00:00 21.4 7 Norte 16 Norte 0 -- -- 78
2020-07-30 13:00:00 19.6 8 Norte 18 Oeste 0 -- -- 82
2020-07-30 12:00:00 22.5 6 Oeste 14 Sudoeste 0 -- -- 72
2020-07-30 11:00:00 22.8 7 Noroeste 12 Oeste 0 -- -- 76
2020-07-30 10:00:00 22.2 4 Norte 9 Norte 0 -- -- 80
2020-07-30 09:00:00 20.1 4 Nordeste 10 Nordeste 0 -- -- 88
2020-07-30 08:00:00 17.5 0 Calma 6 Oeste 0 -- -- 94
2020-07-30 07:00:00 17.4 0 Calma 5 Noroeste 0 -- -- 96
2020-07-30 06:00:00 17.7 3 Norte 9 Oeste 0 -- -- 93
2020-07-30 05:00:00 18.4 5 Noroeste 7 Noroeste 0 -- -- 92
2020-07-30 04:00:00 19.5 0 Calma 5 Sudoeste 0 -- -- 89
2020-07-30 03:00:00 21.1 2 Norte 4 Norte 0 -- -- 82
2020-07-30 02:00:00 21.5 0 Calma 5 Nordeste 0 -- -- 81
2020-07-30 01:00:00 22.2 0 Calma 4 Sudeste 0 -- -- 77
2020-07-30 00:00:00 23.2 3 Sur 5 Sudeste 0 -- -- 73
2020-07-29 23:00:00 23.8 0 Calma 3 Sudoeste 0 -- -- 71
2020-07-29 22:00:00 25.4 0 Calma 8 Sudoeste 0 -- -- 63
2020-07-29 21:00:00 27.3 3 Sudoeste 10 Sur 0 -- -- 56
2020-07-29 20:00:00 29.7 3 Sudoeste 11 Sudoeste 0 -- -- 51
2020-07-29 19:00:00 30.6 4 Sudoeste 13 Sudoeste 0 -- -- 49
2020-07-29 18:00:00 31.3 4 Sudoeste 11 Sudoeste 0 -- -- 48
2020-07-29 17:00:00 31 3 Sudoeste 13 Sudoeste 0 -- -- 49
2020-07-29 16:00:00 31.1 5 Oeste 14 Oeste 0 -- -- 49
2020-07-29 15:00:00 29.3 8 Oeste 15 Oeste 0 -- -- 52
2020-07-29 14:00:00 28.2 7 Oeste 12 Oeste 0 -- -- 53
2020-07-29 13:00:00 26.9 6 Noroeste 10 Norte 0 -- -- 57
2020-07-29 12:00:00 26.4 4 Nordeste 12 Norte 0 -- -- 60
2020-07-29 11:00:00 24.7 5 Este 16 Este 0 -- -- 63
2020-07-29 10:00:00 22.2 4 Nordeste 10 Nordeste 0 -- -- 71
2020-07-29 09:00:00 19.7 5 Nordeste 13 Norte 0 -- -- 79
2020-07-29 08:00:00 18.1 3 Nordeste 9 Este 0 -- -- 85
2020-07-29 07:00:00 17.9 4 Nordeste 14 Nordeste 0 -- -- 85
2020-07-29 06:00:00 18.7 5 Nordeste 16 Este 0 -- -- 81
2020-07-29 05:00:00 19.2 5 Este 18 Nordeste 0 -- -- 80
2020-07-29 04:00:00 19.1 3 Nordeste 17 Nordeste 0 -- -- 79
2020-07-29 03:00:00 19.7 5 Nordeste 15 Este 0 -- -- 75
2020-07-29 02:00:00 20.4 4 Nordeste 15 Norte 0 -- -- 72
2020-07-29 01:00:00 21.3 5 Nordeste 15 Norte 0 -- -- 69
2020-07-29 00:00:00 22.1 7 Nordeste 21 Nordeste 0 -- -- 67
2020-07-28 23:00:00 23.4 7 Nordeste 26 Nordeste 0 -- -- 65
2020-07-28 22:00:00 24.5 10 Nordeste 28 Norte 0 -- -- 63
2020-07-28 21:00:00 25.9 10 Norte 21 Norte 0 -- -- 62
2020-07-28 20:00:00 28.5 9 Norte 23 Noroeste 0 -- -- 57
2020-07-28 19:00:00 29.4 4 Sudoeste 20 Norte 0 -- -- 55
2020-07-28 18:00:00 29.8 9 Norte 18 Norte 0 -- -- 54
2020-07-28 17:00:00 29.3 8 Norte 17 Norte 0 -- -- 55
2020-07-28 16:00:00 28.1 8 Norte 16 Noroeste 0 -- -- 57
2020-07-28 15:00:00 27.3 8 Norte 15 Norte 0 -- -- 61
2020-07-28 14:00:00 27.1 5 Oeste 17 Norte 0 -- -- 61
2020-07-28 13:00:00 25.5 4 Noroeste 12 Oeste 0 -- -- 68
2020-07-28 12:00:00 23.7 6 Oeste 12 Noroeste 0 -- -- 74
2020-07-28 11:00:00 22.6 5 Noroeste 13 Oeste 0 -- -- 80
2020-07-28 10:00:00 20.9 4 Oeste 8 Oeste 0 -- -- 88
2020-07-28 09:00:00 19.5 2 Sur 8 Oeste 0 -- -- 96
2020-07-28 08:00:00 18.9 2 Oeste 6 Oeste 0 -- -- 98
2020-07-28 07:00:00 19.1 0 Calma 4 Oeste 0 -- -- 98
2020-07-28 06:00:00 19.1 0 Calma 4 Oeste 0 -- -- 100
2020-07-28 05:00:00 18.9 0 Calma 2 Sudoeste 0 -- -- 100
2020-07-28 04:00:00 18.7 2 Oeste 4 Oeste 0 -- -- 100
2020-07-28 03:00:00 18.8 0 Calma 5 Noroeste 0 -- -- 99
2020-07-28 02:00:00 19.1 3 Noroeste 5 Noroeste 0 -- -- 98
2020-07-28 01:00:00 19.3 2 Noroeste 5 Noroeste 0 -- -- 97
2020-07-28 00:00:00 19.4 0 Calma 8 Oeste 0 -- -- 96
2020-07-27 23:00:00 19.5 2 Sudoeste 12 Sudoeste 0 -- -- 96
2020-07-27 22:00:00 19.8 5 Oeste 13 Oeste 0 -- -- 94
2020-07-27 21:00:00 21.3 4 Sudoeste 14 Oeste 0 -- -- 86
2020-07-27 20:00:00 22.7 6 Oeste 21 Sudoeste 0 -- -- 79
2020-07-27 19:00:00 23.4 7 Oeste 18 Oeste 0 -- -- 77
2020-07-27 18:00:00 24.2 5 Sudoeste 19 Sudoeste 0 -- -- 74
2020-07-27 17:00:00 24.6 7 Sudoeste 24 Sudoeste 0 -- -- 72
2020-07-27 16:00:00 25.5 6 Sudoeste 17 Sudoeste 0 -- -- 68
2020-07-27 15:00:00 24.9 7 Sudoeste 21 Sudoeste 0 -- -- 70
2020-07-27 14:00:00 24.5 7 Oeste 19 Sudoeste 0 -- -- 70
2020-07-27 13:00:00 24.6 6 Oeste 15 Oeste 0 -- -- 64
2020-07-27 12:00:00 23.3 4 Oeste 10 Noroeste 0 -- -- 69
2020-07-27 09:00:00 -- -- -- -- -- -- -- -- --
2020-07-27 08:00:00 -- -- -- -- -- -- -- -- --
2020-07-27 07:00:00 -- -- -- -- -- -- -- -- --
2020-07-27 06:00:00 -- -- -- -- -- -- -- -- --
2020-07-27 05:00:00 -- -- -- -- -- -- -- -- --
2020-07-27 04:00:00 16 0 Calma 3 Sur 0 -- -- 91
2020-07-27 03:00:00 16.4 0 Calma 4 Oeste 0 -- -- 90
2020-07-27 02:00:00 16.8 3 Oeste 5 Sudoeste 0 -- -- 88
2020-07-27 01:00:00 17 0 Calma 5 Oeste 0 -- -- 86
2020-07-27 00:00:00 17.4 0 Calma 7 Sudoeste 0 -- -- 82
2020-07-26 23:00:00 18.1 2 Sudoeste 9 Sudoeste 0 -- -- 78
2020-07-26 22:00:00 19.5 3 Sudoeste 11 Sudoeste 0 -- -- 73
2020-07-26 21:00:00 22.6 3 Sudoeste 13 Oeste 0 -- -- 61
2020-07-26 20:00:00 24.3 5 Sudoeste 16 Oeste 0 -- -- 58
2020-07-26 19:00:00 24.8 7 Sudoeste 25 Sudoeste 0 -- -- 59
2020-07-26 18:00:00 25.3 7 Sudoeste 19 Sudoeste 0 -- -- 61
2020-07-26 17:00:00 25.5 7 Sudoeste 24 Sudoeste 0 -- -- 63
2020-07-26 16:00:00 25.5 8 Sudoeste 19 Sudoeste 0 -- -- 64
2020-07-26 15:00:00 25.2 7 Sudoeste 18 Sudoeste 0 -- -- 66
2020-07-26 14:00:00 25 7 Oeste 19 Sudoeste 0 -- -- 67
2020-07-26 13:00:00 25.1 5 Sudoeste 13 Sudoeste 0 -- -- 70
2020-07-26 12:00:00 22.4 7 Oeste 13 Oeste 0 -- -- 80
2020-07-26 11:00:00 21.7 7 Oeste 12 Oeste 0 -- -- 82
2020-07-26 10:00:00 21 2 Sudoeste 7 Noroeste 0 -- -- 86
2020-07-26 09:00:00 19.4 3 Norte 5 Norte 0 -- -- 94
2020-07-26 08:00:00 18 0 Calma 4 Sudeste 0 -- -- 99
2020-07-26 07:00:00 17.8 0 Calma 4 Sur 0 -- -- 99
2020-07-26 06:00:00 17.8 0 Calma 5 Oeste 0 -- -- 99
2020-07-26 05:00:00 17.9 0 Calma 4 Oeste 0 -- -- 98
2020-07-26 04:00:00 18.3 0 Calma 5 Noroeste 0 -- -- 98
2020-07-26 03:00:00 18 0 Calma 2 Sur 0 -- -- 97
2020-07-26 02:00:00 18 0 Calma 5 Sur 0 -- -- 96
2020-07-26 01:00:00 18.4 0 Calma 6 Oeste 0 -- -- 96
2020-07-26 00:00:00 18.4 2 Sudoeste 9 Oeste 0 -- -- 96
2020-07-25 23:00:00 18.3 3 Oeste 10 Oeste 0 -- -- 95
2020-07-25 22:00:00 19.2 5 Oeste 10 Oeste 0 -- -- 91
2020-07-25 21:00:00 19.8 4 Sudoeste 12 Oeste 0 -- -- 88
2020-07-25 20:00:00 20.6 4 Sudoeste 19 Noroeste 0 -- -- 83
2020-07-25 19:00:00 22.9 5 Sudoeste 13 Oeste 0 -- -- 71
2020-07-25 18:00:00 23.8 4 Sudeste 19 Sudoeste 0 -- -- 66
2020-07-25 17:00:00 24.3 4 Sur 17 Norte 0 -- -- 64
2020-07-25 16:00:00 24.4 6 Sudoeste 17 Sudoeste 0 -- -- 64
2020-07-25 15:00:00 24.1 6 Sudoeste 17 Sudoeste 0 -- -- 65
2020-07-25 14:00:00 23.4 7 Oeste 18 Sudoeste 0 -- -- 65
2020-07-25 13:00:00 23.4 6 Sudoeste 14 Oeste 0 -- -- 65
2020-07-25 12:00:00 21.6 6 Sudoeste 17 Oeste 0 -- -- 72
2020-07-25 11:00:00 19.7 5 Oeste 13 Oeste 0 -- -- 79
2020-07-25 10:00:00 18.4 4 Oeste 9 Oeste 0 -- -- 86
2020-07-25 09:00:00 17.6 2 Sudoeste 4 Sudoeste 0 -- -- 90
2020-07-25 08:00:00 15.8 0 Calma 4 Noroeste 0 -- -- 97
2020-07-25 07:00:00 15.8 0 Calma 3 Noroeste 0 -- -- 95
2020-07-25 06:00:00 16.3 0 Calma 5 Norte 0 -- -- 92
2020-07-25 05:00:00 16.9 3 Norte 5 Norte 0 -- -- 90
2020-07-25 04:00:00 17.3 2 Norte 7 Nordeste 0 -- -- 88
2020-07-25 03:00:00 17.7 0 Calma 10 Sudoeste 0 -- -- 88
2020-07-25 02:00:00 18.1 2 Sudoeste 9 Sur 0 -- -- 87
2020-07-25 01:00:00 18.6 2 Oeste 5 Sudoeste 0 -- -- 85
2020-07-25 00:00:00 18.6 2 Sudoeste 8 Sudoeste 0 -- -- 85
2020-07-24 23:00:00 19.2 2 Sudoeste 8 Oeste 0 -- -- 82
2020-07-24 22:00:00 19.9 3 Sur 18 Oeste 0 -- -- 79
2020-07-24 21:00:00 21.6 4 Sudoeste 13 Sudoeste 0 -- -- 71
2020-07-24 20:00:00 23.9 4 Sudoeste 18 Sudoeste 0 -- -- 65
2020-07-24 19:00:00 24.9 6 Sudoeste 18 Oeste 0 -- -- 62
2020-07-24 18:00:00 25.2 8 Sudoeste 24 Oeste 0 -- -- 60
2020-07-24 17:00:00 26.3 6 Oeste 21 Oeste 0 -- -- 57
2020-07-24 16:00:00 25.6 6 Sudoeste 19 Sudoeste 0 -- -- 59
2020-07-24 15:00:00 25.3 4 Sudoeste 17 Oeste 0 -- -- 58
2020-07-24 14:00:00 26.6 4 Norte 14 Oeste 0 -- -- 44
2020-07-24 13:00:00 24 6 Noroeste 13 Noroeste 0 -- -- 55
2020-07-24 12:00:00 22.6 4 Noroeste 11 Noroeste 0 -- -- 56
2020-07-24 11:00:00 21.1 4 Norte 11 Nordeste 0 -- -- 64
2020-07-24 10:00:00 19.5 5 Norte 10 Norte 0 -- -- 71
2020-07-24 09:00:00 18.3 3 Nordeste 12 Norte 0 -- -- 75
2020-07-24 08:00:00 16.3 4 Nordeste 12 Norte 0 -- -- 83
2020-07-24 07:00:00 15.6 2 Sudoeste 5 Sur 0 -- -- 92
2020-07-24 06:00:00 16.2 0 Calma 8 Norte 0 -- -- 90
2020-07-24 05:00:00 16.8 3 Norte 9 Norte 0 -- -- 85
2020-07-24 04:00:00 16.9 3 Sudoeste 8 Sudoeste 0 -- -- 88
2020-07-24 03:00:00 17.8 0 Calma 6 Norte 0 -- -- 86
2020-07-24 02:00:00 18.7 0 Calma 13 Norte 0 -- -- 79
2020-07-24 01:00:00 19.5 4 Norte 15 Norte 0 -- -- 78
2020-07-24 00:00:00 20 5 Norte 13 Noroeste 0 -- -- 77
2020-07-23 23:00:00 19.8 2 Sudoeste 10 Sudoeste 0 -- -- 78
2020-07-23 22:00:00 21.3 3 Oeste 10 Sur 0 -- -- 72
2020-07-23 21:00:00 23.5 3 Sudoeste 14 Sudoeste 0 -- -- 66
2020-07-23 20:00:00 24.6 5 Sudoeste 14 Oeste 0 -- -- 63
2020-07-23 19:00:00 25.2 5 Sudoeste 13 Sudoeste 0 -- -- 61
2020-07-23 18:00:00 26 5 Sudoeste 12 Oeste 0 -- -- 57
2020-07-23 17:00:00 27.3 5 Sudoeste 15 Sudoeste 0 -- -- 55
2020-07-23 16:00:00 26.6 6 Sudoeste 15 Norte 0 -- -- 56
2020-07-23 15:00:00 27.1 5 Sudoeste 15 Sudoeste 0 -- -- 56
2020-07-23 14:00:00 24.8 5 Oeste 17 Oeste 0 -- -- 65
2020-07-23 13:00:00 24.6 7 Oeste 15 Oeste 0 -- -- 68
2020-07-23 12:00:00 23.1 4 Sudoeste 15 Oeste 0 -- -- 74
2020-07-23 11:00:00 22.3 4 Oeste 10 Oeste 0 -- -- 77
2020-07-23 10:00:00 21.8 3 Nordeste 8 Nordeste 0 -- -- 80
2020-07-23 09:00:00 20.1 3 Nordeste 6 Este 0 -- -- 86
2020-07-23 08:00:00 17.6 0 Calma 4 Este 0 -- -- 97
2020-07-23 07:00:00 17.4 0 Calma 4 Este 0 -- -- 97
2020-07-23 06:00:00 17.7 0 Calma 5 Noroeste 0 -- -- 96
2020-07-23 05:00:00 18.1 0 Calma 4 Sur 0 -- -- 95
2020-07-23 04:00:00 18.5 4 Oeste 7 Oeste 0 -- -- 92
2020-07-23 03:00:00 19.4 3 Sudoeste 10 Oeste 0 -- -- 87
2020-07-23 02:00:00 21.2 0 Calma 4 Sudoeste 0 -- -- 80
2020-07-23 01:00:00 21.4 2 Nordeste 3 Norte 0 -- -- 78
2020-07-23 00:00:00 21.8 0 Calma 6 Sudeste 0 -- -- 74
2020-07-22 23:00:00 22.2 0 Calma 5 Oeste 0 -- -- 74
2020-07-22 22:00:00 23.5 0 Calma 5 Oeste 0 -- -- 69
2020-07-22 21:00:00 27.1 3 Oeste 7 Sudoeste 0 -- -- 58
2020-07-22 20:00:00 27.2 3 Sudoeste 12 Oeste 0 -- -- 57
2020-07-22 19:00:00 26.9 8 Oeste 14 Noroeste 0 -- -- 59
2020-07-22 18:00:00 27 6 Oeste 17 Oeste 0 -- -- 59
2020-07-22 17:00:00 27.5 5 Sudoeste 15 Oeste 0 -- -- 58
2020-07-22 16:00:00 28.4 5 Sudoeste 14 Oeste 0 -- -- 55
2020-07-22 15:00:00 29 6 Oeste 14 Oeste 0 -- -- 56
2020-07-22 14:00:00 28.8 5 Oeste 14 Oeste 0 -- -- 54
2020-07-22 13:00:00 26.5 9 Oeste 12 Oeste 0 -- -- 62
2020-07-22 12:00:00 26.4 5 Oeste 10 Oeste 0 -- -- 63
2020-07-22 11:00:00 25.7 4 Norte 9 Nordeste 0 -- -- 65
2020-07-22 10:00:00 24.9 2 Sudoeste 6 Nordeste 0 -- -- 69
2020-07-22 09:00:00 22.1 3 Nordeste 6 Este 0 -- -- 78
2020-07-22 08:00:00 19.8 3 Nordeste 6 Norte 0 -- -- 87
2020-07-22 07:00:00 20.8 0 Calma 5 Este 0 -- -- 83
2020-07-22 06:00:00 21.4 0 Calma 6 Norte 0 -- -- 80
2020-07-22 05:00:00 21.3 0 Calma 5 Norte 0 -- -- 81
2020-07-22 04:00:00 21.4 5 Nordeste 10 Nordeste 0 -- -- 79
2020-07-22 03:00:00 22.5 0 Calma 5 Norte 0 -- -- 76
2020-07-22 02:00:00 23.1 0 Calma 6 Norte 0 -- -- 75
2020-07-22 01:00:00 24 2 Nordeste 10 Nordeste 0 -- -- 71
2020-07-22 00:00:00 24.5 2 Nordeste 5 Norte 0 -- -- 69
2020-07-21 23:00:00 25.6 2 Nordeste 5 Sudeste 0 -- -- 68
2020-07-21 22:00:00 26.4 0 Calma 4 Sudoeste 0 -- -- 63
2020-07-21 21:00:00 28.6 3 Nordeste 6 Nordeste 0 -- -- 55
2020-07-21 20:00:00 32.1 4 Oeste 9 Sur 0 -- -- 48
2020-07-21 19:00:00 32.7 4 Sudoeste 13 Sudoeste 0 -- -- 48
2020-07-21 18:00:00 32.9 6 Oeste 13 Sudoeste 0 -- -- 47
2020-07-21 17:00:00 33.1 5 Oeste 14 Noroeste 0 -- -- 48
2020-07-21 16:00:00 32.1 5 Sudoeste 14 Sudoeste 0 -- -- 50
2020-07-21 15:00:00 29.3 10 Oeste 17 Oeste 0 -- -- 53
2020-07-21 14:00:00 30 6 Norte 14 Norte 0 -- -- 53
2020-07-21 13:00:00 29.7 5 Este 15 Este 0 -- -- 53
2020-07-21 12:00:00 27.5 5 Este 18 Este 0 -- -- 58
2020-07-21 11:00:00 25.1 6 Nordeste 19 Este 0 -- -- 63
2020-07-21 10:00:00 22.8 6 Nordeste 19 Este 0 -- -- 69
2020-07-21 09:00:00 21.3 5 Este 12 Este 0 -- -- 74
2020-07-21 08:00:00 19 2 Nordeste 10 Nordeste 0 -- -- 82
2020-07-21 07:00:00 19.2 3 Este 18 Este 0 -- -- 81
2020-07-21 06:00:00 19.4 5 Nordeste 14 Este 0 -- -- 80
2020-07-21 05:00:00 19.8 5 Nordeste 16 Este 0 -- -- 77
2020-07-21 04:00:00 20.2 5 Nordeste 13 Nordeste 0 -- -- 76
2020-07-21 03:00:00 20.7 5 Nordeste 15 Nordeste 0 -- -- 73
2020-07-21 02:00:00 21 6 Nordeste 16 Nordeste 0 -- -- 71
2020-07-21 01:00:00 21.6 4 Nordeste 20 Este 0 -- -- 69
2020-07-21 00:00:00 22.5 6 Nordeste 21 Nordeste 0 -- -- 67
2020-07-20 23:00:00 23.9 7 Nordeste 22 Nordeste 0 -- -- 66
2020-07-20 22:00:00 25 7 Nordeste 18 Norte 0 -- -- 65
2020-07-20 21:00:00 27.8 6 Norte 14 Norte 0 -- -- 57
2020-07-20 20:00:00 30.7 4 Noroeste 9 Sudoeste 0 -- -- 50
2020-07-20 19:00:00 30.8 3 Sudoeste 11 Sudoeste 0 -- -- 50
2020-07-20 18:00:00 30.3 5 Sudoeste 12 Sudoeste 0 -- -- 51
2020-07-20 17:00:00 30.3 5 Sudoeste 15 Sudoeste 0 -- -- 50
2020-07-20 16:00:00 29.7 6 Sudoeste 14 Oeste 0 -- -- 52
2020-07-20 15:00:00 29 8 Oeste 15 Oeste 0 -- -- 52
2020-07-20 14:00:00 27.8 5 Sudoeste 17 Oeste 0 -- -- 55
2020-07-20 13:00:00 27 6 Norte 13 Norte 0 -- -- 56
2020-07-20 12:00:00 25.9 6 Norte 15 Norte 0 -- -- 60
2020-07-20 11:00:00 24 6 Nordeste 15 Norte 0 -- -- 64
2020-07-20 10:00:00 22.6 5 Nordeste 13 Nordeste 0 -- -- 70
2020-07-20 09:00:00 20.2 4 Nordeste 12 Norte 0 -- -- 81
2020-07-20 08:00:00 17.7 0 Calma 15 Nordeste 0 -- -- 91
2020-07-20 07:00:00 16.9 4 Nordeste 14 Este 0 -- -- 95
2020-07-20 06:00:00 16.2 3 Sudeste 8 Este 0 -- -- 98
2020-07-20 05:00:00 16.3 2 Norte 4 Norte 0 -- -- 97
2020-07-20 04:00:00 16.6 0 Calma 4 Este 0 -- -- 96
2020-07-20 03:00:00 16.5 0 Calma 3 Este 0 -- -- 96
2020-07-20 02:00:00 16.6 0 Calma 3 Nordeste 0 -- -- 95
2020-07-20 01:00:00 16.9 0 Calma 4 Oeste 0 -- -- 94
2020-07-20 00:00:00 17.5 0 Calma 6 Noroeste 0 -- -- 91
2020-07-19 23:00:00 17.9 2 Oeste 6 Oeste 0 -- -- 89
2020-07-19 22:00:00 18.9 4 Oeste 6 Oeste 0 -- -- 84
2020-07-19 21:00:00 20.7 3 Oeste 9 Oeste 0 -- -- 77
2020-07-19 20:00:00 21.2 5 Oeste 14 Sudoeste 0 -- -- 75
2020-07-19 19:00:00 21.5 4 Oeste 13 Noroeste 0 -- -- 74
2020-07-19 18:00:00 21 6 Oeste 19 Oeste 0 -- -- 75
2020-07-19 17:00:00 20.6 6 Oeste 23 Oeste 0 -- -- 79
2020-07-19 16:00:00 20.5 6 Sudoeste 18 Oeste 0 -- -- 78
2020-07-19 15:00:00 19.1 8 Sudoeste 20 Sudoeste 0 -- -- 83
2020-07-19 14:00:00 19.3 7 Sudoeste 18 Oeste 0 -- -- 82
2020-07-19 13:00:00 19.9 6 Sudoeste 18 Oeste 0 -- -- 80
2020-07-19 12:00:00 19.6 7 Oeste 17 Sudoeste 0 -- -- 83
2020-07-19 11:00:00 19 5 Oeste 10 Oeste 0 -- -- 84
2020-07-19 10:00:00 17.7 3 Oeste 7 Oeste 0 -- -- 94
2020-07-19 09:00:00 16 0 Calma 4 Sudoeste 0 -- -- 100
2020-07-19 08:00:00 15.2 3 Oeste 8 Oeste 0 -- -- 100
2020-07-19 07:00:00 15.4 2 Noroeste 6 Norte 0 -- -- 100
2020-07-19 06:00:00 15.3 2 Noroeste 6 Norte 0 -- -- 100
2020-07-19 05:00:00 15.3 2 Oeste 14 Oeste 0 -- -- 100
2020-07-19 04:00:00 16 4 Noroeste 12 Noroeste 0 -- -- 98
2020-07-19 03:00:00 17.7 6 Norte 12 Nordeste 0 -- -- 92
2020-07-19 02:00:00 19.5 5 Noroeste 9 Noroeste 0 -- -- 78
2020-07-19 01:00:00 21.1 0 Calma 3 Sudeste 0 -- -- 67
2020-07-19 00:00:00 21.7 0 Calma 4 Norte 0 -- -- 65
2020-07-18 23:00:00 23.4 0 Calma 3 Sudoeste 0 -- -- 48
2020-07-18 22:00:00 25.3 0 Calma 9 Oeste 0 -- -- 43
2020-07-18 21:00:00 28.1 3 Sudoeste 13 Oeste 0 -- -- 37
2020-07-18 20:00:00 30.2 6 Oeste 11 Oeste 0 -- -- 34
2020-07-18 19:00:00 29.9 4 Sudoeste 15 Oeste 0 -- -- 36
2020-07-18 18:00:00 31.2 4 Sudoeste 16 Oeste 0 -- -- 37
2020-07-18 17:00:00 30.1 6 Oeste 13 Oeste 0 -- -- 41
2020-07-18 16:00:00 29.4 5 Oeste 17 Oeste 0 -- -- 44
2020-07-18 15:00:00 29 5 Sudoeste 13 Oeste 0 -- -- 48
2020-07-18 14:00:00 27.9 6 Oeste 14 Oeste 0 -- -- 51
2020-07-18 13:00:00 27.4 9 Oeste 13 Oeste 0 -- -- 52
2020-07-18 12:00:00 28.4 5 Oeste 12 Oeste 0 -- -- 50
2020-07-18 11:00:00 28.7 3 Nordeste 5 Norte 0 -- -- 48
2020-07-18 10:00:00 25.6 4 Nordeste 6 Nordeste 0 -- -- 56
2020-07-18 09:00:00 24.4 2 Nordeste 9 Este 0 -- -- 60
2020-07-18 08:00:00 23.3 5 Este 13 Este 0 -- -- 58
2020-07-18 07:00:00 24.2 2 Este 11 Este 0 -- -- 56
2020-07-18 06:00:00 25.2 5 Este 12 Este 0 -- -- 55
2020-07-18 05:00:00 25.6 3 Nordeste 11 Este 0 -- -- 53
2020-07-18 04:00:00 26 3 Nordeste 9 Nordeste 0 -- -- 52
2020-07-18 03:00:00 26.8 3 Nordeste 12 Este 0 -- -- 49
2020-07-18 02:00:00 27 4 Nordeste 8 Nordeste 0 -- -- 44
2020-07-18 01:00:00 26.7 3 Nordeste 9 Nordeste 0 -- -- 50
2020-07-18 00:00:00 27.7 4 Nordeste 12 Este 0 -- -- 48
2020-07-17 23:00:00 27.4 2 Nordeste 7 Este 0 -- -- 52
2020-07-17 22:00:00 28.8 0 Calma 4 Sudoeste 0 -- -- 48
2020-07-17 21:00:00 32.3 2 Oeste 8 Oeste 0 -- -- 39
2020-07-17 20:00:00 33.3 4 Sudoeste 11 Sur 0 -- -- 37
2020-07-17 19:00:00 33.6 4 Sudoeste 13 Oeste 0 -- -- 37
2020-07-17 18:00:00 34.8 5 Oeste 15 Oeste 0 -- -- 36
2020-07-17 17:00:00 34.9 5 Oeste 16 Oeste 0 -- -- 37
2020-07-17 16:00:00 35 6 Oeste 15 Noroeste 0 -- -- 37
2020-07-17 15:00:00 34 6 Oeste 14 Oeste 0 -- -- 35
2020-07-17 14:00:00 34.3 4 Nordeste 17 Este 0 -- -- 36
2020-07-17 13:00:00 32.7 7 Este 17 Nordeste 0 -- -- 39
2020-07-17 12:00:00 31.1 8 Este 18 Este 0 -- -- 41
2020-07-17 11:00:00 29 4 Este 15 Este 0 -- -- 43
2020-07-17 10:00:00 26.7 4 Este 14 Este 0 -- -- 47
2020-07-17 09:00:00 24.5 5 Este 20 Nordeste 0 -- -- 52
2020-07-17 08:00:00 22.4 7 Este 19 Nordeste 0 -- -- 57
2020-07-17 07:00:00 21.7 5 Nordeste 18 Este 0 -- -- 61
2020-07-17 06:00:00 22.1 8 Este 15 Este 0 -- -- 60
2020-07-17 05:00:00 22.3 4 Nordeste 12 Este 0 -- -- 60
2020-07-17 04:00:00 22.9 5 Nordeste 12 Nordeste 0 -- -- 59
2020-07-17 03:00:00 23.2 6 Nordeste 17 Nordeste 0 -- -- 55
2020-07-17 02:00:00 23.7 4 Nordeste 15 Nordeste 0 -- -- 53
2020-07-17 01:00:00 24.3 6 Nordeste 15 Nordeste 0 -- -- 51
2020-07-17 00:00:00 25.3 5 Nordeste 25 Este 0 -- -- 48
2020-07-16 23:00:00 26.7 7 Nordeste 22 Este 0 -- -- 46
2020-07-16 22:00:00 28.3 6 Nordeste 25 Nordeste 0 -- -- 42
2020-07-16 21:00:00 31.7 10 Nordeste 28 Nordeste 0 -- -- 34
2020-07-16 20:00:00 34 8 Nordeste 22 Este 0 -- -- 30
2020-07-16 19:00:00 34.7 6 Nordeste 24 Norte 0 -- -- 31
2020-07-16 18:00:00 34.1 9 Norte 19 Norte 0 -- -- 33
2020-07-16 17:00:00 34.1 6 Noroeste 15 Oeste 0 -- -- 38
2020-07-16 16:00:00 32.9 6 Noroeste 14 Oeste 0 -- -- 41
2020-07-16 15:00:00 32.7 6 Norte 12 Norte 0 -- -- 42
2020-07-16 14:00:00 31.8 7 Norte 17 Este 0 -- -- 44
2020-07-16 13:00:00 30.3 8 Este 19 Este 0 -- -- 46
2020-07-16 12:00:00 28.6 5 Este 19 Este 0 -- -- 49
2020-07-16 11:00:00 25.8 5 Nordeste 17 Norte 0 -- -- 53
2020-07-16 10:00:00 23.7 6 Este 18 Este 0 -- -- 56
2020-07-16 09:00:00 20.8 6 Nordeste 19 Este 0 -- -- 64
2020-07-16 08:00:00 19.3 5 Nordeste 13 Nordeste 0 -- -- 68
2020-07-16 07:00:00 19.6 4 Nordeste 16 Este 0 -- -- 67
2020-07-16 06:00:00 19.9 6 Nordeste 14 Nordeste 0 -- -- 66
2020-07-16 05:00:00 19.7 5 Nordeste 15 Nordeste 0 -- -- 64
2020-07-16 04:00:00 20.6 5 Nordeste 14 Este 0 -- -- 63
2020-07-16 03:00:00 21.2 6 Nordeste 14 Nordeste 0 -- -- 58
2020-07-16 02:00:00 21.8 5 Nordeste 21 Nordeste 0 -- -- 54
2020-07-16 01:00:00 22.5 6 Nordeste 22 Nordeste 0 -- -- 51
2020-07-16 00:00:00 23.6 8 Nordeste 23 Nordeste 0 -- -- 47
2020-07-15 23:00:00 24.7 6 Nordeste 22 Norte 0 -- -- 43
2020-07-15 22:00:00 26 9 Nordeste 26 Nordeste 0 -- -- 41
2020-07-15 21:00:00 28.9 9 Nordeste 32 Nordeste 0 -- -- 35
2020-07-15 20:00:00 30.7 12 Nordeste 30 Norte 0 -- -- 33
2020-07-15 19:00:00 31.8 11 Nordeste 31 Este 0 -- -- 33
2020-07-15 18:00:00 32.2 12 Nordeste 33 Norte 0 -- -- 34
2020-07-15 17:00:00 32.5 13 Nordeste 32 Nordeste 0 -- -- 34
2020-07-15 16:00:00 32.6 9 Nordeste 26 Nordeste 0 -- -- 35
2020-07-15 15:00:00 32.1 8 Nordeste 22 Nordeste 0 -- -- 36
2020-07-15 14:00:00 31.1 7 Nordeste 28 Nordeste 0 -- -- 36
2020-07-15 13:00:00 29.3 8 Este 25 Nordeste 0 -- -- 37
2020-07-15 12:00:00 27.4 7 Nordeste 21 Nordeste 0 -- -- 43
2020-07-15 11:00:00 25 6 Nordeste 23 Nordeste 0 -- -- 48
2020-07-15 10:00:00 23.1 5 Nordeste 16 Nordeste 0 -- -- 54
2020-07-15 09:00:00 21 5 Este 18 Este 0 -- -- 60
2020-07-15 08:00:00 19.1 6 Este 22 Este 0 -- -- 67
2020-07-15 07:00:00 18.8 6 Este 19 Este 0 -- -- 68
2020-07-15 06:00:00 18.9 6 Este 19 Este 0 -- -- 68
2020-07-15 05:00:00 18.9 6 Nordeste 20 Nordeste 0 -- -- 67
2020-07-15 04:00:00 19 6 Este 21 Nordeste 0 -- -- 66
2020-07-15 03:00:00 18.8 6 Nordeste 26 Este 0 -- -- 65
2020-07-15 02:00:00 18.6 10 Nordeste 30 Este 0 -- -- 68
2020-07-15 01:00:00 18.7 6 Nordeste 24 Nordeste 0 -- -- 66
2020-07-15 00:00:00 19.7 8 Nordeste 28 Este 0 -- -- 63
2020-07-14 23:00:00 20.8 9 Nordeste 29 Este 0 -- -- 65
2020-07-14 22:00:00 22.2 7 Nordeste 28 Norte 0 -- -- 63
2020-07-14 21:00:00 24.5 9 Nordeste 31 Norte 0 -- -- 56
2020-07-14 20:00:00 26 11 Norte 40 Norte 0 -- -- 53
2020-07-14 19:00:00 26.7 17 Norte 40 Norte 0 -- -- 49
2020-07-14 18:00:00 26.6 20 Norte 36 Norte 0 -- -- 45
2020-07-14 17:00:00 26.8 15 Norte 41 Nordeste 0 -- -- 43
2020-07-14 16:00:00 26.3 19 Norte 38 Norte 0 -- -- 47
2020-07-14 15:00:00 26.5 18 Norte 35 Norte 0 -- -- 47
2020-07-14 14:00:00 25 19 Norte 35 Norte 0 -- -- 48
2020-07-14 13:00:00 24.7 15 Norte 24 Nordeste 0 -- -- 48
2020-07-14 12:00:00 24.2 7 Norte 15 Norte 0 -- -- 47
2020-07-14 11:00:00 23.9 6 Nordeste 15 Nordeste 0 -- -- 45
2020-07-14 10:00:00 22 5 Nordeste 15 Este 0 -- -- 51
2020-07-14 09:00:00 20.3 4 Nordeste 14 Nordeste 0 -- -- 52
2020-07-14 08:00:00 18.4 5 Nordeste 17 Nordeste 0 -- -- 55
2020-07-14 07:00:00 18.5 5 Nordeste 16 Nordeste 0 -- -- 56
2020-07-14 06:00:00 18.9 2 Nordeste 15 Este 0 -- -- 54
2020-07-14 05:00:00 19.3 4 Nordeste 19 Este 0 -- -- 55
2020-07-14 04:00:00 20.3 6 Nordeste 17 Norte 0 -- -- 49
2020-07-14 03:00:00 20.8 6 Norte 15 Norte 0 -- -- 47
2020-07-14 02:00:00 21.1 3 Este 17 Nordeste 0 -- -- 45
2020-07-14 01:00:00 21.9 3 Nordeste 21 Norte 0 -- -- 41
2020-07-14 00:00:00 22.9 6 Nordeste 23 Nordeste 0 -- -- 38
2020-07-13 23:00:00 24.2 8 Nordeste 29 Nordeste 0 -- -- 36
2020-07-13 22:00:00 25.7 10 Nordeste 33 Nordeste 0 -- -- 35
2020-07-13 21:00:00 28.4 11 Nordeste 39 Nordeste 0 -- -- 32
2020-07-13 20:00:00 30.7 12 Nordeste 36 Norte 0 -- -- 34
2020-07-13 19:00:00 31.5 13 Norte 27 Norte 0 -- -- 38
2020-07-13 18:00:00 32 12 Norte 31 Nordeste 0 -- -- 42
2020-07-13 17:00:00 31.5 17 Norte 32 Norte 0 -- -- 43
2020-07-13 16:00:00 31.4 15 Norte 26 Norte 0 -- -- 47
2020-07-13 15:00:00 31.4 7 Oeste 13 Nordeste 0 -- -- 48
2020-07-13 14:00:00 30.9 7 Norte 17 Norte 0 -- -- 50
2020-07-13 13:00:00 29.5 6 Este 15 Nordeste 0 -- -- 54
2020-07-13 12:00:00 27.8 5 Nordeste 13 Norte 0 -- -- 57
2020-07-13 11:00:00 26 5 Nordeste 15 Nordeste 0 -- -- 60
2020-07-13 10:00:00 24.5 4 Nordeste 15 Nordeste 0 -- -- 64
2020-07-13 09:00:00 22.5 4 Nordeste 12 Este 0 -- -- 69
2020-07-13 08:00:00 20.4 5 Este 13 Nordeste 0 -- -- 76
2020-07-13 07:00:00 20.4 4 Nordeste 10 Este 0 -- -- 76
2020-07-13 06:00:00 20.9 4 Nordeste 11 Nordeste 0 -- -- 74
2020-07-13 05:00:00 21.5 4 Nordeste 13 Este 0 -- -- 72
2020-07-13 04:00:00 22.2 4 Nordeste 11 Norte 0 -- -- 68
2020-07-13 03:00:00 22.8 5 Nordeste 15 Norte 0 -- -- 66
2020-07-13 02:00:00 23.5 5 Nordeste 14 Nordeste 0 -- -- 63
2020-07-13 01:00:00 24.3 6 Nordeste 17 Nordeste 0 -- -- 60
2020-07-13 00:00:00 24.3 3 Este 9 Nordeste 0 -- -- 65